createdAt,value
2023-03-18T00:02:03.452Z,100.00
2023-03-18T00:04:07.477Z,100.00
2023-03-18T00:06:16.408Z,100.00
2023-03-18T00:08:20.903Z,100.00
2023-03-18T00:10:25.365Z,100.00
2023-03-18T00:12:29.658Z,100.00
2023-03-18T00:14:36.900Z,100.00
2023-03-18T00:16:41.759Z,100.00
2023-03-18T00:18:45.631Z,100.00
2023-03-18T00:20:49.638Z,100.00
2023-03-18T00:22:53.547Z,100.00
2023-03-18T00:24:57.187Z,100.00
2023-03-18T00:27:01.193Z,100.00
2023-03-18T00:29:05.263Z,100.00
2023-03-18T00:31:14.062Z,100.00
2023-03-18T00:33:19.375Z,100.00
2023-03-18T00:35:24.039Z,100.00
2023-03-18T00:37:31.711Z,100.00
2023-03-18T00:39:38.110Z,100.00
2023-03-18T00:41:42.592Z,100.00
2023-03-18T00:43:52.822Z,100.00
2023-03-18T00:45:58.435Z,100.00
2023-03-18T00:48:04.084Z,100.00
2023-03-18T00:50:10.375Z,100.00
2023-03-18T00:52:14.778Z,100.00
2023-03-18T00:54:21.081Z,100.00
2023-03-18T00:56:27.323Z,100.00
2023-03-18T00:58:31.974Z,100.00
2023-03-18T01:00:36.290Z,100.00
2023-03-18T01:02:41.463Z,100.00
2023-03-18T01:04:47.248Z,100.00
2023-03-18T01:06:51.556Z,100.00
2023-03-18T01:08:55.756Z,100.00
2023-03-18T01:11:01.089Z,100.00
2023-03-18T01:13:05.162Z,100.00
2023-03-18T01:15:10.940Z,100.00
2023-03-18T01:17:14.807Z,100.00
2023-03-18T01:19:18.849Z,100.00
2023-03-18T01:21:24.255Z,100.00
2023-03-18T01:23:32.783Z,100.00
2023-03-18T01:25:36.834Z,100.00
2023-03-18T01:27:40.938Z,100.00
2023-03-18T01:29:46.631Z,100.00
2023-03-18T01:31:57.172Z,100.00
2023-03-18T01:34:02.350Z,100.00
2023-03-18T01:36:15.816Z,100.00
2023-03-18T01:38:26.150Z,100.00
2023-03-18T01:40:30.788Z,100.00
2023-03-18T01:42:36.189Z,100.00
2023-03-18T01:44:40.283Z,100.00
2023-03-18T01:46:45.893Z,100.00
2023-03-18T01:48:52.606Z,100.00
2023-03-18T01:51:00.725Z,100.00
2023-03-18T01:53:09.904Z,100.00
2023-03-18T01:55:19.539Z,100.00
2023-03-18T01:57:27.390Z,100.00
2023-03-18T01:59:34.459Z,100.00
2023-03-18T02:01:45.269Z,100.00
2023-03-18T02:03:51.364Z,100.00
2023-03-18T02:05:55.740Z,100.00
2023-03-18T02:07:59.965Z,100.00
2023-03-18T02:12:15.008Z,100.00
2023-03-18T02:14:21.987Z,100.00
2023-03-18T02:16:32.762Z,100.00
2023-03-18T02:18:43.283Z,100.00
2023-03-18T02:21:07.526Z,100.00
2023-03-18T02:23:20.956Z,100.00
2023-03-18T02:25:37.782Z,100.00
2023-03-18T02:27:46.861Z,100.00
2023-03-18T02:29:55.150Z,100.00
2023-03-18T02:32:02.211Z,100.00
2023-03-18T02:34:09.111Z,100.00
2023-03-18T02:36:19.576Z,100.00
2023-03-18T02:38:23.704Z,100.00
2023-03-18T02:40:33.602Z,100.00
2023-03-18T02:42:40.121Z,100.00
2023-03-18T02:44:48.464Z,100.00
2023-03-18T02:47:26.170Z,100.00
2023-03-18T02:49:32.936Z,100.00
2023-03-18T02:51:38.577Z,100.00
2023-03-18T02:53:42.176Z,100.00
2023-03-18T02:55:47.058Z,100.00
2023-03-18T02:57:51.582Z,100.00
2023-03-18T02:59:58.449Z,100.00
2023-03-18T03:02:03.305Z,100.00
2023-03-18T03:04:09.438Z,100.00
2023-03-18T03:06:13.884Z,100.00
2023-03-18T03:08:17.375Z,100.00
2023-03-18T03:10:24.682Z,100.00
2023-03-18T03:12:28.775Z,100.00
2023-03-18T03:14:33.780Z,100.00
2023-03-18T03:16:39.972Z,100.00
2023-03-18T03:18:43.656Z,100.00
2023-03-18T03:20:47.167Z,100.00
2023-03-18T03:22:50.565Z,100.00
2023-03-18T03:24:54.437Z,100.00
2023-03-18T03:26:57.973Z,100.00
2023-03-18T03:29:01.661Z,100.00
2023-03-18T03:31:05.375Z,100.00
2023-03-18T03:33:10.195Z,100.00
2023-03-18T03:35:14.711Z,100.00
2023-03-18T03:37:18.937Z,100.00
2023-03-18T03:39:23.818Z,100.00
2023-03-18T03:41:28.418Z,100.00
2023-03-18T03:43:30.673Z,100.00
2023-03-18T03:45:34.816Z,100.00
2023-03-18T03:47:38.332Z,100.00
2023-03-18T03:49:43.734Z,100.00
2023-03-18T03:51:47.425Z,100.00
2023-03-18T03:53:51.072Z,100.00
2023-03-18T03:55:57.366Z,100.00
2023-03-18T03:58:02.394Z,100.00
2023-03-18T04:00:13.656Z,100.00
2023-03-18T04:02:24.482Z,100.00
2023-03-18T04:04:27.993Z,100.00
2023-03-18T04:06:32.816Z,100.00
2023-03-18T04:08:37.960Z,100.00
2023-03-18T04:10:41.520Z,100.00
2023-03-18T04:12:47.545Z,100.00
2023-03-18T04:14:51.939Z,100.00
2023-03-18T04:16:58.224Z,100.00
2023-03-18T04:19:01.532Z,100.00
2023-03-18T04:21:06.091Z,100.00
2023-03-18T04:23:18.136Z,100.00
2023-03-18T04:25:22.263Z,100.00
2023-03-18T04:27:30.125Z,100.00
2023-03-18T04:29:36.044Z,100.00
2023-03-18T04:31:39.807Z,100.00
2023-03-18T04:33:44.994Z,100.00
2023-03-18T04:35:49.539Z,100.00
2023-03-18T04:37:55.103Z,100.00
2023-03-18T04:40:01.663Z,100.00
2023-03-18T04:42:07.528Z,100.00
2023-03-18T04:44:11.173Z,100.00
2023-03-18T04:46:19.485Z,100.00
2023-03-18T04:48:24.645Z,100.00
2023-03-18T04:50:32.341Z,100.00
2023-03-18T04:52:35.980Z,100.00
2023-03-18T04:54:39.986Z,100.00
2023-03-18T04:56:45.291Z,100.00
2023-03-18T04:58:49.175Z,100.00
2023-03-18T05:00:57.367Z,100.00
2023-03-18T05:03:07.522Z,100.00
2023-03-18T05:05:12.082Z,100.00
2023-03-18T05:07:21.901Z,100.00
2023-03-18T05:09:34.461Z,100.00
2023-03-18T05:11:38.500Z,100.00
2023-03-18T05:14:01.221Z,100.00
2023-03-18T05:16:10.604Z,100.00
2023-03-18T05:18:16.791Z,100.00
2023-03-18T05:20:24.182Z,100.00
2023-03-18T05:22:28.706Z,100.00
2023-03-18T05:24:41.729Z,100.00
2023-03-18T05:26:46.200Z,100.00
2023-03-18T05:28:51.036Z,100.00
2023-03-18T05:31:08.955Z,100.00
2023-03-18T05:33:17.505Z,100.00
2023-03-18T05:35:30.643Z,100.00
2023-03-18T05:37:34.809Z,100.00
2023-03-18T05:39:44.976Z,100.00
2023-03-18T05:41:52.762Z,100.00
2023-03-18T05:44:04.460Z,100.00
2023-03-18T05:46:14.473Z,100.00
2023-03-18T05:48:34.499Z,100.00
2023-03-18T05:50:44.296Z,100.00
2023-03-18T05:52:52.220Z,100.00
2023-03-18T05:54:59.237Z,100.00
2023-03-18T05:57:08.196Z,100.00
2023-03-18T05:59:14.196Z,100.00
2023-03-18T06:01:34.439Z,100.00
2023-03-18T06:03:39.214Z,100.00
2023-03-18T06:05:43.563Z,100.00
2023-03-18T06:07:47.681Z,100.00
2023-03-18T06:09:52.685Z,100.00
2023-03-18T06:11:57.614Z,100.00
2023-03-18T06:14:01.455Z,100.00
2023-03-18T06:16:06.813Z,100.00
2023-03-18T06:18:12.783Z,100.00
2023-03-18T06:20:19.179Z,100.00
2023-03-18T06:22:23.410Z,100.00
2023-03-18T06:24:28.815Z,100.00
2023-03-18T06:26:33.451Z,100.00
2023-03-18T06:28:38.702Z,100.00
2023-03-18T06:30:46.984Z,100.00
2023-03-18T06:32:51.090Z,100.00
2023-03-18T06:34:57.202Z,100.00
2023-03-18T06:37:01.503Z,100.00
2023-03-18T06:39:06.048Z,100.00
2023-03-18T06:41:13.381Z,100.00
2023-03-18T06:43:28.404Z,100.00
2023-03-18T06:45:34.698Z,100.00
2023-03-18T06:47:43.214Z,100.00
2023-03-18T06:49:47.230Z,100.00
2023-03-18T06:51:58.056Z,100.00
2023-03-18T06:54:02.064Z,100.00
2023-03-18T06:56:10.064Z,100.00
2023-03-18T06:58:27.306Z,100.00
2023-03-18T07:00:41.929Z,100.00
2023-03-18T07:02:50.995Z,100.00
2023-03-18T07:04:55.843Z,100.00
2023-03-18T07:07:01.881Z,100.00
2023-03-18T07:09:05.981Z,100.00
2023-03-18T07:11:09.743Z,100.00
2023-03-18T07:13:15.943Z,100.00
2023-03-18T07:15:21.797Z,100.00
2023-03-18T07:17:27.915Z,100.00
2023-03-18T07:19:34.792Z,100.00
2023-03-18T07:21:39.739Z,100.00
2023-03-18T07:23:45.198Z,100.00
2023-03-18T07:25:49.157Z,100.00
2023-03-18T07:27:56.898Z,100.00
2023-03-18T07:30:02.150Z,100.00
2023-03-18T07:32:06.759Z,100.00
2023-03-18T07:34:11.259Z,100.00
2023-03-18T07:36:15.886Z,100.00
2023-03-18T07:38:20.310Z,100.00
2023-03-18T07:40:26.219Z,100.00
2023-03-18T07:42:30.288Z,100.00
2023-03-18T07:44:34.085Z,100.00
2023-03-18T07:46:38.202Z,100.00
2023-03-18T07:48:42.060Z,100.00
2023-03-18T07:50:46.193Z,100.00
2023-03-18T07:52:50.087Z,100.00
2023-03-18T07:54:53.945Z,100.00
2023-03-18T07:56:58.882Z,100.00
2023-03-18T07:59:02.230Z,100.00
2023-03-18T08:01:06.367Z,100.00
2023-03-18T08:03:10.735Z,100.00
2023-03-18T08:05:16.013Z,100.00
2023-03-18T08:07:19.478Z,100.00
2023-03-18T08:09:23.207Z,100.00
2023-03-18T08:11:26.476Z,100.00
2023-03-18T08:13:31.223Z,100.00
2023-03-18T08:15:35.261Z,100.00
2023-03-18T08:17:39.000Z,100.00
2023-03-18T08:19:43.307Z,100.00
2023-03-18T08:21:48.570Z,100.00
2023-03-18T08:23:52.306Z,100.00
2023-03-18T08:25:56.505Z,100.00
2023-03-18T08:28:00.132Z,100.00
2023-03-18T08:30:07.285Z,100.00
2023-03-18T08:32:12.311Z,100.00
2023-03-18T08:34:17.697Z,100.00
2023-03-18T08:36:21.216Z,100.00
2023-03-18T08:38:24.950Z,100.00
2023-03-18T08:40:28.323Z,100.00
2023-03-18T08:42:31.773Z,99.56
2023-03-18T08:44:35.173Z,98.91
2023-03-18T08:46:40.481Z,97.32
2023-03-18T08:48:44.681Z,95.62
2023-03-18T08:50:49.037Z,95.05
2023-03-18T08:52:52.577Z,94.65
2023-03-18T08:54:56.367Z,94.21
2023-03-18T08:57:01.108Z,94.18
2023-03-18T08:59:04.945Z,94.12
2023-03-18T09:01:10.152Z,94.42
2023-03-18T09:03:17.135Z,93.92
2023-03-18T09:05:20.864Z,94.31
2023-03-18T09:07:24.404Z,94.32
2023-03-18T09:09:40.961Z,93.79
2023-03-18T09:11:48.038Z,93.65
2023-03-18T09:13:52.421Z,93.63
2023-03-18T09:15:56.009Z,93.43
2023-03-18T09:18:11.026Z,93.76
2023-03-18T09:20:18.550Z,93.50
2023-03-18T09:22:22.135Z,93.36
2023-03-18T09:24:25.541Z,93.56
2023-03-18T09:26:29.175Z,93.41
2023-03-18T09:28:32.725Z,93.15
2023-03-18T09:30:36.758Z,93.02
2023-03-18T09:32:40.580Z,93.63
2023-03-18T09:34:44.711Z,92.97
2023-03-18T09:36:51.343Z,92.69
2023-03-18T09:38:54.981Z,92.65
2023-03-18T09:41:06.986Z,91.59
2023-03-18T09:43:29.749Z,92.11
2023-03-18T09:45:39.004Z,91.97
2023-03-18T09:47:57.613Z,92.12
2023-03-18T09:50:14.553Z,92.38
2023-03-18T09:52:25.147Z,92.38
2023-03-18T09:54:36.848Z,91.54
2023-03-18T09:56:41.168Z,91.15
2023-03-18T09:58:51.507Z,91.98
2023-03-18T10:00:59.730Z,91.95
2023-03-18T10:03:08.473Z,91.95
2023-03-18T10:05:18.936Z,92.36
2023-03-18T10:07:28.792Z,92.70
2023-03-18T10:09:39.981Z,93.29
2023-03-18T10:11:45.574Z,93.05
2023-03-18T10:14:01.995Z,93.16
2023-03-18T10:16:07.979Z,93.81
2023-03-18T10:18:17.775Z,94.00
2023-03-18T10:20:27.612Z,94.18
2023-03-18T10:22:57.975Z,93.72
2023-03-18T10:25:07.719Z,93.93
2023-03-18T10:27:20.625Z,93.72
2023-03-18T10:29:36.154Z,94.26
2023-03-18T10:31:51.253Z,93.79
2023-03-18T10:33:59.798Z,93.51
2023-03-18T10:36:12.641Z,93.80
2023-03-18T10:38:24.020Z,93.83
2023-03-18T10:40:37.343Z,93.83
2023-03-18T10:42:43.129Z,93.92
2023-03-18T10:44:48.190Z,93.70
2023-03-18T10:47:02.360Z,93.75
2023-03-18T10:49:13.508Z,94.44
2023-03-18T10:51:22.849Z,94.64
2023-03-18T10:53:33.123Z,94.57
2023-03-18T10:55:41.288Z,94.53
2023-03-18T10:57:45.325Z,95.35
2023-03-18T10:59:49.603Z,95.79
2023-03-18T11:01:58.790Z,96.58
2023-03-18T11:04:06.465Z,97.63
2023-03-18T11:06:20.280Z,97.71
2023-03-18T11:08:38.606Z,98.00
2023-03-18T11:10:47.340Z,98.02
2023-03-18T11:12:50.732Z,97.09
2023-03-18T11:14:54.933Z,97.81
2023-03-18T11:17:01.013Z,97.94
2023-03-18T11:19:22.254Z,98.18
2023-03-18T11:21:28.936Z,98.08
2023-03-18T11:23:49.317Z,97.62
2023-03-18T11:25:57.185Z,98.53
2023-03-18T11:28:05.786Z,98.66
2023-03-18T11:30:33.224Z,98.53
2023-03-18T11:32:38.185Z,99.17
2023-03-18T11:34:42.171Z,99.26
2023-03-18T11:36:55.806Z,99.22
2023-03-18T11:39:05.709Z,98.67
2023-03-18T11:41:13.725Z,98.59
2023-03-18T11:43:21.037Z,98.73
2023-03-18T11:45:36.315Z,98.28
2023-03-18T11:47:40.526Z,98.02
2023-03-18T11:49:46.611Z,99.27
2023-03-18T11:51:57.103Z,99.81
2023-03-18T11:54:14.345Z,100.00
2023-03-18T11:56:27.495Z,100.00
2023-03-18T11:58:54.915Z,100.00
2023-03-18T12:01:07.991Z,100.00
2023-03-18T12:03:46.772Z,100.00
2023-03-18T12:06:04.240Z,100.00
2023-03-18T12:08:16.670Z,100.00
2023-03-18T12:10:28.573Z,100.00
2023-03-18T12:12:49.685Z,100.00
2023-03-18T12:14:59.936Z,100.00
2023-03-18T12:17:19.082Z,100.00
2023-03-18T12:19:37.881Z,100.00
2023-03-18T12:22:04.514Z,100.00
2023-03-18T12:24:28.161Z,100.00
2023-03-18T12:26:41.823Z,100.00
2023-03-18T12:29:11.927Z,100.00
2023-03-18T12:31:41.541Z,100.00
2023-03-18T12:33:56.499Z,100.00
2023-03-18T12:36:12.702Z,100.00
2023-03-18T12:38:43.971Z,100.00
2023-03-18T12:41:00.380Z,100.00
2023-03-18T12:43:26.410Z,100.00
2023-03-18T12:45:37.611Z,100.00
2023-03-18T12:47:48.207Z,100.00
2023-03-18T12:49:57.810Z,100.00
2023-03-18T12:52:07.214Z,100.00
2023-03-18T12:54:20.449Z,100.00
2023-03-18T12:56:27.716Z,100.00
2023-03-18T12:58:39.283Z,100.00
2023-03-18T13:00:49.673Z,100.00
2023-03-18T13:03:07.250Z,100.00
2023-03-18T13:05:34.896Z,100.00
2023-03-18T13:07:44.369Z,100.00
2023-03-18T13:09:52.912Z,100.00
2023-03-18T13:12:09.793Z,100.00
2023-03-18T13:14:23.820Z,100.00
2023-03-18T13:16:28.960Z,100.00
2023-03-18T13:18:40.220Z,100.00
2023-03-18T13:20:44.692Z,100.00
2023-03-18T13:23:07.517Z,100.00
2023-03-18T13:25:21.243Z,100.00
2023-03-18T13:27:49.716Z,100.00
2023-03-18T13:30:03.805Z,100.00
2023-03-18T13:32:26.285Z,100.00
2023-03-18T13:35:04.393Z,100.00
2023-03-18T13:37:30.879Z,100.00
2023-03-18T13:40:11.756Z,100.00
2023-03-18T13:42:23.420Z,100.00
2023-03-18T13:44:36.107Z,100.00
2023-03-18T13:46:43.981Z,100.00
2023-03-18T13:48:48.318Z,100.00
2023-03-18T13:50:53.295Z,100.00
2023-03-18T13:52:59.890Z,100.00
2023-03-18T13:55:07.085Z,100.00
2023-03-18T13:57:35.986Z,100.00
2023-03-18T13:59:48.737Z,99.95
2023-03-18T14:01:53.935Z,100.00
2023-03-18T14:04:03.257Z,100.00
2023-03-18T14:06:27.208Z,99.69
2023-03-18T14:08:49.948Z,99.70
2023-03-18T14:11:39.659Z,97.89
2023-03-18T14:13:43.574Z,96.76
2023-03-18T14:15:47.321Z,96.94
2023-03-18T14:17:57.222Z,97.58
2023-03-18T14:20:10.397Z,97.12
2023-03-18T14:22:27.487Z,96.96
2023-03-18T14:24:31.219Z,96.36
2023-03-18T14:26:35.872Z,96.68
2023-03-18T14:28:45.719Z,96.56
2023-03-18T14:30:59.051Z,95.44
2023-03-18T14:33:06.296Z,93.55
2023-03-18T14:35:28.696Z,93.64
2023-03-18T14:37:34.319Z,93.15
2023-03-18T14:39:42.482Z,92.23
2023-03-18T14:41:47.354Z,91.21
2023-03-18T14:44:04.821Z,90.43
2023-03-18T14:46:18.264Z,89.61
2023-03-18T14:48:29.622Z,88.82
2023-03-18T14:50:44.177Z,88.65
2023-03-18T14:52:56.097Z,88.53
2023-03-18T14:55:03.787Z,89.09
2023-03-18T14:57:07.315Z,88.52
2023-03-18T14:59:17.513Z,88.58
2023-03-18T15:01:26.811Z,89.05
2023-03-18T15:03:34.295Z,88.60
2023-03-18T15:05:41.094Z,87.70
2023-03-18T15:07:45.501Z,88.73
2023-03-18T15:09:51.752Z,88.77
2023-03-18T15:11:56.688Z,88.91
2023-03-18T15:14:00.794Z,88.49
2023-03-18T15:16:06.416Z,88.11
2023-03-18T15:18:23.293Z,88.46
2023-03-18T15:20:29.820Z,88.71
2023-03-18T15:22:35.777Z,87.83
2023-03-18T15:24:39.560Z,85.88
2023-03-18T15:26:44.296Z,84.56
2023-03-18T15:28:49.009Z,84.84
2023-03-18T15:30:56.185Z,85.05
2023-03-18T15:33:08.841Z,86.80
2023-03-18T15:35:18.625Z,87.67
2023-03-18T15:37:33.817Z,87.43
2023-03-18T15:39:39.212Z,86.90
2023-03-18T15:41:42.904Z,87.30
2023-03-18T15:43:48.272Z,86.17
2023-03-18T15:45:57.771Z,85.45
2023-03-18T15:48:08.489Z,84.19
2023-03-18T15:50:25.741Z,81.75
2023-03-18T15:52:33.633Z,79.69
2023-03-18T15:54:41.879Z,78.38
2023-03-18T15:56:47.530Z,76.79
2023-03-18T15:58:59.749Z,74.98
2023-03-18T16:01:04.152Z,74.97
2023-03-18T16:03:19.527Z,75.64
2023-03-18T16:05:26.271Z,73.62
2023-03-18T16:07:33.369Z,71.79
2023-03-18T16:09:37.077Z,70.27
2023-03-18T16:11:41.568Z,69.96
2023-03-18T16:13:46.330Z,69.86
2023-03-18T16:15:50.189Z,69.71
2023-03-18T16:17:55.292Z,70.23
2023-03-18T16:19:58.689Z,70.48
2023-03-18T16:22:02.638Z,70.00
2023-03-18T16:24:07.782Z,69.08
2023-03-18T16:26:17.864Z,68.58
2023-03-18T16:28:23.076Z,68.61
2023-03-18T16:30:29.328Z,69.48
2023-03-18T16:32:33.245Z,70.23
2023-03-18T16:34:37.229Z,69.49
2023-03-18T16:36:41.075Z,69.56
2023-03-18T16:38:48.014Z,69.29
2023-03-18T16:40:54.902Z,69.68
2023-03-18T16:42:59.237Z,69.42
2023-03-18T16:45:05.396Z,69.57
2023-03-18T16:47:23.102Z,70.12
2023-03-18T16:49:31.230Z,70.82
2023-03-18T16:51:35.131Z,71.63
2023-03-18T16:53:39.436Z,71.68
2023-03-18T16:55:42.988Z,71.86
2023-03-18T16:57:51.799Z,72.96
2023-03-18T16:59:56.826Z,73.70
2023-03-18T17:02:00.686Z,74.05
2023-03-18T17:04:14.468Z,74.58
2023-03-18T17:06:18.278Z,74.99
2023-03-18T17:08:22.983Z,75.86
2023-03-18T17:10:28.045Z,76.01
2023-03-18T17:12:31.335Z,76.35
2023-03-18T17:14:38.922Z,76.53
2023-03-18T17:16:43.588Z,75.77
2023-03-18T17:18:47.426Z,75.18
2023-03-18T17:20:51.913Z,73.47
2023-03-18T17:22:56.797Z,72.79
2023-03-18T17:25:02.434Z,72.58
2023-03-18T17:27:06.105Z,72.50
2023-03-18T17:29:20.308Z,72.62
2023-03-18T17:31:25.911Z,73.01
2023-03-18T17:33:32.220Z,73.67
2023-03-18T17:35:37.039Z,73.77
2023-03-18T17:37:40.803Z,74.05
2023-03-18T17:39:44.893Z,74.49
2023-03-18T17:41:48.935Z,74.11
2023-03-18T17:43:52.642Z,74.13
2023-03-18T17:45:57.035Z,74.51
2023-03-18T17:48:16.283Z,75.34
2023-03-18T17:50:21.367Z,75.52
2023-03-18T17:52:25.846Z,75.68
2023-03-18T17:54:31.951Z,76.90
2023-03-18T17:56:38.287Z,76.86
2023-03-18T17:58:44.949Z,77.51
2023-03-18T18:00:49.257Z,78.01
2023-03-18T18:02:54.842Z,77.43
2023-03-18T18:05:00.430Z,78.06
2023-03-18T18:07:06.084Z,77.25
2023-03-18T18:09:13.540Z,77.11
2023-03-18T18:11:22.133Z,77.26
2023-03-18T18:13:26.511Z,77.54
2023-03-18T18:15:30.445Z,77.04
2023-03-18T18:17:34.316Z,77.18
2023-03-18T18:19:38.418Z,76.66
2023-03-18T18:21:44.738Z,76.90
2023-03-18T18:23:49.354Z,76.82
2023-03-18T18:25:53.857Z,76.68
2023-03-18T18:27:57.738Z,76.84
2023-03-18T18:30:01.368Z,76.42
2023-03-18T18:32:05.674Z,76.30
2023-03-18T18:34:09.800Z,76.18
2023-03-18T18:36:14.427Z,76.35
2023-03-18T18:38:19.761Z,76.45
2023-03-18T18:40:23.957Z,76.96
2023-03-18T18:42:28.629Z,76.65
2023-03-18T18:44:32.641Z,76.47
2023-03-18T18:46:36.647Z,77.02
2023-03-18T18:48:41.250Z,76.93
2023-03-18T18:50:45.922Z,77.43
2023-03-18T18:52:49.902Z,77.54
2023-03-18T18:54:54.983Z,77.61
2023-03-18T18:56:59.113Z,77.96
2023-03-18T18:59:05.617Z,78.50
2023-03-18T19:01:09.731Z,78.25
2023-03-18T19:03:16.344Z,78.27
2023-03-18T19:05:20.256Z,78.21
2023-03-18T19:07:26.632Z,78.36
2023-03-18T19:09:30.530Z,78.40
2023-03-18T19:11:35.866Z,78.23
2023-03-18T19:13:39.830Z,78.21
2023-03-18T19:15:43.559Z,78.27
2023-03-18T19:17:48.501Z,78.45
2023-03-18T19:19:53.676Z,78.83
2023-03-18T19:21:59.112Z,78.91
2023-03-18T19:24:02.778Z,79.06
2023-03-18T19:26:07.692Z,78.75
2023-03-18T19:28:21.300Z,79.20
2023-03-18T19:30:25.995Z,79.71
2023-03-18T19:32:29.657Z,79.59
2023-03-18T19:34:36.093Z,79.79
2023-03-18T19:36:42.806Z,79.88
2023-03-18T19:38:46.627Z,79.89
2023-03-18T19:40:53.027Z,80.60
2023-03-18T19:42:56.595Z,80.67
2023-03-18T19:45:02.087Z,81.18
2023-03-18T19:47:05.719Z,81.33
2023-03-18T19:49:22.565Z,81.96
2023-03-18T19:51:26.232Z,82.26
2023-03-18T19:53:30.432Z,82.90
2023-03-18T19:55:34.077Z,83.19
2023-03-18T19:57:38.041Z,83.85
2023-03-18T19:59:42.431Z,83.97
2023-03-18T20:01:48.178Z,84.55
2023-03-18T20:03:55.580Z,84.52
2023-03-18T20:06:00.499Z,85.06
2023-03-18T20:08:04.642Z,85.53
2023-03-18T20:10:11.281Z,85.49
2023-03-18T20:12:23.037Z,85.81
2023-03-18T20:14:28.914Z,86.09
2023-03-18T20:16:32.787Z,86.40
2023-03-18T20:18:38.800Z,86.75
2023-03-18T20:20:44.578Z,86.89
2023-03-18T20:22:53.117Z,87.05
2023-03-18T20:24:58.944Z,87.45
2023-03-18T20:27:02.603Z,87.53
2023-03-18T20:29:24.162Z,88.11
2023-03-18T20:31:30.104Z,88.33
2023-03-18T20:33:33.990Z,88.48
2023-03-18T20:35:42.466Z,88.83
2023-03-18T20:37:47.935Z,88.80
2023-03-18T20:39:52.501Z,89.50
2023-03-18T20:41:57.376Z,89.22
2023-03-18T20:44:01.449Z,89.69
2023-03-18T20:46:05.929Z,89.79
2023-03-18T20:48:10.258Z,90.30
2023-03-18T20:50:15.969Z,90.36
2023-03-18T20:52:27.360Z,90.84
2023-03-18T20:54:31.663Z,90.59
2023-03-18T20:56:35.578Z,90.88
2023-03-18T20:58:39.296Z,91.02
2023-03-18T21:00:43.842Z,91.06
2023-03-18T21:02:49.918Z,91.49
2023-03-18T21:04:54.502Z,91.67
2023-03-18T21:06:58.606Z,91.83
2023-03-18T21:09:05.073Z,92.23
2023-03-18T21:11:22.822Z,92.43
2023-03-18T21:13:29.791Z,92.84
2023-03-18T21:15:34.028Z,93.10
2023-03-18T21:17:39.484Z,93.13
2023-03-18T21:19:43.201Z,93.40
2023-03-18T21:21:47.057Z,93.53
2023-03-18T21:23:51.260Z,93.69
2023-03-18T21:26:01.456Z,94.07
2023-03-18T21:28:05.335Z,94.28
2023-03-18T21:30:11.129Z,93.86
2023-03-18T21:32:23.482Z,94.58
2023-03-18T21:34:27.213Z,94.36
2023-03-18T21:36:31.366Z,94.29
2023-03-18T21:38:35.794Z,94.64
2023-03-18T21:40:39.891Z,94.68
2023-03-18T21:42:46.629Z,94.90
2023-03-18T21:44:52.088Z,95.20
2023-03-18T21:46:56.501Z,95.03
2023-03-18T21:49:01.150Z,94.96
2023-03-18T21:51:05.383Z,95.23
2023-03-18T21:53:13.623Z,95.41
2023-03-18T21:55:18.738Z,95.27
2023-03-18T21:57:24.917Z,95.10
2023-03-18T21:59:30.140Z,95.10
2023-03-18T22:01:34.725Z,95.29
2023-03-18T22:03:39.255Z,95.41
2023-03-18T22:05:43.414Z,95.44
2023-03-18T22:07:47.919Z,95.48
2023-03-18T22:09:52.243Z,95.50
2023-03-18T22:11:56.974Z,95.79
2023-03-18T22:14:01.320Z,96.13
2023-03-18T22:16:07.817Z,95.87
2023-03-18T22:18:12.506Z,96.05
2023-03-18T22:20:17.240Z,96.81
2023-03-18T22:22:22.368Z,96.42
2023-03-18T22:24:26.001Z,96.52
2023-03-18T22:26:29.777Z,96.49
2023-03-18T22:28:33.616Z,96.45
2023-03-18T22:30:37.437Z,96.61
2023-03-18T22:32:44.972Z,96.94
2023-03-18T22:34:48.664Z,97.34
2023-03-18T22:36:52.338Z,96.43
2023-03-18T22:38:55.938Z,96.35
2023-03-18T22:41:00.005Z,96.49
2023-03-18T22:43:05.579Z,96.29
2023-03-18T22:45:24.164Z,95.92
2023-03-18T22:47:31.490Z,95.93
2023-03-18T22:49:36.725Z,95.91
2023-03-18T22:51:42.432Z,95.74
2023-03-18T22:53:50.738Z,96.03
2023-03-18T22:55:56.805Z,96.26
2023-03-18T22:58:00.558Z,95.86
2023-03-18T23:00:07.665Z,96.21
2023-03-18T23:02:17.377Z,96.26
2023-03-18T23:04:21.104Z,96.38
2023-03-18T23:06:27.443Z,96.27
2023-03-18T23:08:31.563Z,96.21
2023-03-18T23:10:35.550Z,96.14
2023-03-18T23:12:39.484Z,96.59
2023-03-18T23:14:43.213Z,96.44
2023-03-18T23:16:46.862Z,96.71
2023-03-18T23:18:51.926Z,96.75
2023-03-18T23:20:56.454Z,97.42
2023-03-18T23:23:01.533Z,97.48
2023-03-18T23:25:06.976Z,97.36
2023-03-18T23:27:11.113Z,97.83
2023-03-18T23:29:14.859Z,98.08
2023-03-18T23:31:19.180Z,97.69
2023-03-18T23:33:23.262Z,98.27
2023-03-18T23:35:27.423Z,98.55
2023-03-18T23:37:31.717Z,98.32
2023-03-18T23:39:43.043Z,98.49
2023-03-18T23:41:46.938Z,98.37
2023-03-18T23:43:51.183Z,98.66
2023-03-18T23:45:55.573Z,98.36
2023-03-18T23:47:59.379Z,98.34
2023-03-18T23:50:03.088Z,97.99
2023-03-18T23:52:09.309Z,98.20
2023-03-18T23:54:13.276Z,98.04
2023-03-18T23:56:18.297Z,97.33
2023-03-18T23:58:21.814Z,97.10
